createdAt,value
2019-03-21T00:00:30.455Z,9.60
2019-03-21T00:03:01.871Z,9.60
2019-03-21T00:05:35.211Z,9.70
2019-03-21T00:08:07.999Z,9.60
2019-03-21T00:11:15.353Z,9.60
2019-03-21T00:13:46.882Z,9.70
2019-03-21T00:16:18.255Z,9.70
2019-03-21T00:18:49.662Z,9.60
2019-03-21T00:21:21.069Z,9.70
2019-03-21T00:23:52.273Z,9.70
2019-03-21T00:26:24.232Z,9.70
2019-03-21T00:28:55.567Z,9.70
2019-03-21T00:31:26.896Z,9.70
2019-03-21T00:33:58.366Z,9.70
2019-03-21T00:36:29.680Z,9.60
2019-03-21T00:39:01.066Z,9.60
2019-03-21T00:41:33.114Z,9.60
2019-03-21T00:44:04.615Z,9.60
2019-03-21T00:46:35.989Z,9.50
2019-03-21T00:49:07.308Z,9.60
2019-03-21T00:51:38.695Z,9.60
2019-03-21T00:54:09.994Z,9.60
2019-03-21T00:56:41.267Z,9.50
2019-03-21T00:59:12.675Z,9.50
2019-03-21T01:01:43.953Z,9.50
2019-03-21T01:04:15.421Z,9.50
2019-03-21T01:06:46.645Z,9.50
2019-03-21T01:09:17.983Z,9.60
2019-03-21T01:11:49.184Z,9.50
2019-03-21T01:14:29.381Z,9.40
2019-03-21T01:16:53.289Z,9.50
2019-03-21T01:19:24.595Z,9.50
2019-03-21T01:21:55.882Z,9.40
2019-03-21T01:24:27.200Z,9.40
2019-03-21T01:26:58.351Z,9.50
2019-03-21T01:29:29.714Z,9.50
2019-03-21T01:32:00.992Z,9.40
2019-03-21T01:34:32.380Z,9.40
2019-03-21T01:37:03.899Z,9.30
2019-03-21T01:39:35.162Z,9.30
2019-03-21T01:42:06.538Z,9.30
2019-03-21T01:44:41.243Z,9.20
2019-03-21T01:47:11.104Z,9.10
2019-03-21T01:49:42.634Z,9.20
2019-03-21T01:52:14.016Z,9.20
2019-03-21T01:54:45.291Z,9.10
2019-03-21T01:57:16.596Z,9.10
2019-03-21T01:59:47.883Z,9.10
2019-03-21T02:02:19.194Z,9.20
2019-03-21T02:04:50.511Z,9.20
2019-03-21T02:07:21.882Z,9.10
2019-03-21T02:09:53.198Z,9.20
2019-03-21T02:12:24.589Z,9.20
2019-03-21T02:14:55.887Z,9.20
2019-03-21T02:17:27.269Z,9.30
2019-03-21T02:19:58.552Z,9.30
2019-03-21T02:22:29.862Z,9.20
2019-03-21T02:25:01.292Z,9.10
2019-03-21T02:27:32.533Z,9.10
2019-03-21T02:30:05.211Z,9.10
2019-03-21T02:32:36.494Z,9.00
2019-03-21T02:35:08.796Z,9.10
2019-03-21T02:37:40.100Z,9.10
2019-03-21T02:40:14.335Z,9.20
2019-03-21T02:42:45.552Z,9.20
2019-03-21T02:45:17.109Z,9.10
2019-03-21T02:47:48.665Z,9.20
2019-03-21T02:50:25.697Z,9.10
2019-03-21T02:52:56.900Z,9.10
2019-03-21T02:55:28.196Z,9.10
2019-03-21T02:57:59.558Z,9.20
2019-03-21T03:00:31.473Z,9.20
2019-03-21T03:03:02.629Z,9.10
2019-03-21T03:05:33.988Z,9.10
2019-03-21T03:08:05.308Z,9.20
2019-03-21T03:10:45.272Z,9.20
2019-03-21T03:13:16.449Z,9.20
2019-03-21T03:15:47.876Z,9.10
2019-03-21T03:18:19.281Z,9.20
2019-03-21T03:20:50.609Z,9.20
2019-03-21T03:23:21.867Z,9.20
2019-03-21T03:25:53.054Z,9.10
2019-03-21T03:28:25.559Z,9.20
2019-03-21T03:30:57.273Z,9.20
2019-03-21T03:33:29.539Z,9.20
2019-03-21T03:36:00.793Z,9.30
2019-03-21T03:38:32.015Z,9.30
2019-03-21T03:41:03.427Z,9.30
2019-03-21T03:43:34.702Z,9.30
2019-03-21T03:46:06.056Z,9.30
2019-03-21T03:48:37.267Z,9.30
2019-03-21T03:51:08.693Z,9.30
2019-03-21T03:53:42.438Z,9.30
2019-03-21T03:56:13.135Z,9.30
2019-03-21T03:58:45.282Z,9.30
2019-03-21T04:01:16.565Z,9.20
2019-03-21T04:03:47.931Z,9.20
2019-03-21T04:06:19.233Z,9.30
2019-03-21T04:08:50.532Z,9.30
2019-03-21T04:11:21.929Z,9.30
2019-03-21T04:13:53.203Z,9.30
2019-03-21T04:16:24.572Z,9.30
2019-03-21T04:18:55.923Z,9.30
2019-03-21T04:21:27.165Z,9.30
2019-03-21T04:23:59.936Z,9.30
2019-03-21T04:26:31.959Z,9.30
2019-03-21T04:29:03.177Z,9.20
2019-03-21T04:31:35.608Z,9.20
2019-03-21T04:34:07.649Z,9.20
2019-03-21T04:36:38.930Z,9.20
2019-03-21T04:39:10.872Z,9.30
2019-03-21T04:41:42.873Z,9.20
2019-03-21T04:44:14.194Z,9.20
2019-03-21T04:46:45.729Z,9.10
2019-03-21T04:49:17.012Z,9.20
2019-03-21T04:51:48.342Z,9.30
2019-03-21T04:54:19.581Z,9.20
2019-03-21T04:56:51.022Z,9.20
2019-03-21T04:59:22.290Z,9.20
2019-03-21T05:01:53.461Z,9.30
2019-03-21T05:04:24.775Z,9.30
2019-03-21T05:06:56.189Z,9.30
2019-03-21T05:09:27.487Z,9.20
2019-03-21T05:11:58.784Z,9.30
2019-03-21T05:14:30.006Z,9.30
2019-03-21T05:17:01.450Z,9.30
2019-03-21T05:19:32.747Z,9.30
2019-03-21T05:22:04.370Z,9.20
2019-03-21T05:24:35.566Z,9.30
2019-03-21T05:27:06.987Z,9.20
2019-03-21T05:29:38.257Z,9.10
2019-03-21T05:32:09.650Z,9.20
2019-03-21T05:34:41.951Z,9.30
2019-03-21T05:37:13.315Z,9.30
2019-03-21T05:39:44.607Z,9.30
2019-03-21T05:42:19.303Z,9.30
2019-03-21T05:44:50.563Z,9.30
2019-03-21T05:47:21.950Z,9.30
2019-03-21T05:49:53.111Z,9.30
2019-03-21T05:52:24.345Z,9.30
2019-03-21T05:54:55.651Z,9.40
2019-03-21T05:57:27.132Z,9.40
2019-03-21T05:59:58.295Z,9.40
2019-03-21T06:02:29.629Z,9.40
2019-03-21T06:05:00.923Z,9.40
2019-03-21T06:07:41.240Z,9.40
2019-03-21T06:10:13.732Z,9.50
2019-03-21T06:12:43.806Z,9.50
2019-03-21T06:15:17.032Z,9.60
2019-03-21T06:17:53.706Z,9.60
2019-03-21T06:20:40.904Z,9.60
2019-03-21T06:23:52.518Z,9.60
2019-03-21T06:26:55.834Z,9.70
2019-03-21T06:29:27.052Z,9.70
2019-03-21T06:31:58.201Z,9.80
2019-03-21T06:34:29.619Z,9.80
2019-03-21T06:37:01.000Z,9.80
2019-03-21T06:39:32.205Z,9.90
2019-03-21T06:42:03.490Z,9.90
2019-03-21T06:44:34.807Z,9.80
2019-03-21T06:47:06.017Z,9.80
2019-03-21T06:49:37.330Z,9.90
2019-03-21T06:52:08.597Z,9.90
2019-03-21T06:54:39.997Z,9.90
2019-03-21T06:57:11.321Z,9.90
2019-03-21T06:59:42.574Z,10.00
2019-03-21T07:02:13.816Z,10.10
2019-03-21T07:04:45.185Z,10.00
2019-03-21T07:07:16.452Z,10.20
2019-03-21T07:09:47.748Z,10.20
2019-03-21T07:12:19.071Z,10.30
2019-03-21T07:14:50.387Z,10.30
2019-03-21T07:17:22.959Z,10.30
2019-03-21T07:19:54.348Z,10.30
2019-03-21T07:22:25.638Z,10.40
2019-03-21T07:24:56.873Z,10.30
2019-03-21T07:27:28.166Z,10.40
2019-03-21T07:29:59.516Z,10.30
2019-03-21T07:32:33.583Z,10.40
2019-03-21T07:35:03.967Z,10.30
2019-03-21T07:37:35.310Z,10.40
2019-03-21T07:40:07.548Z,10.60
2019-03-21T07:42:38.902Z,10.60
2019-03-21T07:45:10.480Z,10.40
2019-03-21T07:47:41.765Z,10.60
2019-03-21T07:50:12.972Z,10.70
2019-03-21T07:52:44.243Z,10.80
2019-03-21T07:55:15.552Z,10.70
2019-03-21T07:57:46.983Z,10.80
2019-03-21T08:00:18.439Z,10.90
2019-03-21T08:02:49.854Z,10.90
2019-03-21T08:05:21.048Z,10.70
2019-03-21T08:07:52.440Z,10.80
2019-03-21T08:10:23.625Z,10.80
2019-03-21T08:12:55.048Z,10.80
2019-03-21T08:15:26.550Z,10.80
2019-03-21T08:17:57.937Z,10.90
2019-03-21T08:20:29.246Z,11.00
2019-03-21T08:23:00.579Z,10.90
2019-03-21T08:25:31.859Z,10.90
2019-03-21T08:28:03.157Z,11.00
2019-03-21T08:30:36.008Z,11.10
2019-03-21T08:33:07.382Z,11.20
2019-03-21T08:35:38.672Z,11.20
2019-03-21T08:38:10.078Z,11.30
2019-03-21T08:40:42.685Z,11.50
2019-03-21T08:43:14.172Z,11.50
2019-03-21T08:45:46.418Z,11.70
2019-03-21T08:48:17.803Z,11.90
2019-03-21T08:50:48.977Z,12.10
2019-03-21T08:53:20.160Z,12.10
2019-03-21T08:55:51.587Z,11.90
2019-03-21T08:58:22.863Z,12.20
2019-03-21T09:00:54.191Z,12.20
2019-03-21T09:03:25.608Z,12.10
2019-03-21T09:05:56.860Z,12.00
2019-03-21T09:08:28.073Z,11.90
2019-03-21T09:10:59.212Z,12.00
2019-03-21T09:13:30.483Z,12.20
2019-03-21T09:16:01.841Z,12.10
2019-03-21T09:18:33.229Z,12.30
2019-03-21T09:21:04.554Z,12.60
2019-03-21T09:23:35.845Z,12.80
2019-03-21T09:26:07.047Z,12.90
2019-03-21T09:28:38.362Z,12.70
2019-03-21T09:31:09.543Z,12.80
2019-03-21T09:33:40.924Z,12.90
2019-03-21T09:36:12.115Z,13.00
2019-03-21T09:38:43.523Z,12.80
2019-03-21T09:41:14.811Z,13.00
2019-03-21T09:43:45.993Z,12.60
2019-03-21T09:46:17.317Z,12.70
2019-03-21T09:48:48.710Z,12.90
2019-03-21T09:51:30.572Z,13.10
2019-03-21T09:54:09.235Z,12.80
2019-03-21T09:56:38.067Z,12.90
2019-03-21T09:59:10.061Z,13.10
2019-03-21T10:01:44.292Z,13.30
2019-03-21T10:11:42.100Z,13.10
2019-03-21T10:14:13.402Z,13.10
2019-03-21T10:16:44.711Z,13.20
2019-03-21T10:19:16.898Z,13.10
2019-03-21T10:21:48.316Z,13.10
2019-03-21T10:24:19.741Z,13.10
2019-03-21T10:26:51.013Z,13.00
2019-03-21T10:29:22.344Z,12.70
2019-03-21T10:31:53.588Z,12.80
2019-03-21T10:34:24.981Z,12.80
2019-03-21T10:36:56.401Z,12.80
2019-03-21T10:39:27.676Z,12.70
2019-03-21T10:41:59.183Z,12.70
2019-03-21T10:44:30.432Z,12.50
2019-03-21T10:47:01.664Z,12.60
2019-03-21T10:49:33.092Z,12.80
2019-03-21T10:52:05.384Z,12.90
2019-03-21T10:54:36.822Z,13.20
2019-03-21T10:57:08.098Z,13.10
2019-03-21T10:59:39.411Z,13.10
2019-03-21T11:02:10.797Z,12.90
2019-03-21T11:04:42.187Z,12.90
2019-03-21T11:07:11.168Z,13.10
2019-03-21T11:09:42.444Z,13.20
2019-03-21T11:12:13.832Z,13.20
2019-03-21T11:14:45.217Z,13.20
2019-03-21T11:17:16.632Z,13.20
2019-03-21T11:19:47.939Z,13.40
2019-03-21T11:22:19.332Z,13.30
2019-03-21T11:24:50.627Z,13.40
2019-03-21T11:27:21.923Z,13.60
2019-03-21T11:29:53.212Z,13.40
2019-03-21T11:32:24.583Z,13.40
2019-03-21T11:34:56.415Z,13.50
2019-03-21T11:37:27.922Z,13.10
2019-03-21T11:39:59.128Z,13.30
2019-03-21T11:42:30.520Z,13.40
2019-03-21T11:45:01.737Z,13.30
2019-03-21T11:47:41.397Z,13.40
2019-03-21T11:50:06.825Z,13.20
2019-03-21T11:52:40.931Z,13.40
2019-03-21T11:55:11.312Z,13.50
2019-03-21T11:57:42.569Z,13.60
2019-03-21T12:00:14.358Z,13.60
2019-03-21T12:02:45.835Z,13.90
2019-03-21T12:05:17.132Z,14.00
2019-03-21T12:07:48.496Z,13.80
2019-03-21T12:10:19.903Z,13.80
2019-03-21T12:12:52.147Z,13.90
2019-03-21T12:15:23.216Z,13.70
2019-03-21T12:17:54.638Z,13.80
2019-03-21T12:20:35.631Z,13.70
2019-03-21T12:23:06.824Z,13.70
2019-03-21T12:25:38.128Z,13.60
2019-03-21T12:28:09.299Z,13.70
2019-03-21T12:30:43.940Z,13.80
2019-03-21T12:33:15.192Z,13.70
2019-03-21T12:35:46.261Z,13.80
2019-03-21T12:38:17.585Z,13.90
2019-03-21T12:40:48.968Z,13.80
2019-03-21T12:43:20.380Z,13.70
2019-03-21T12:45:51.669Z,13.70
2019-03-21T12:48:26.131Z,13.90
2019-03-21T12:50:57.425Z,14.00
2019-03-21T12:53:28.774Z,14.00
2019-03-21T12:56:00.228Z,14.20
2019-03-21T12:58:32.460Z,14.10
2019-03-21T13:01:03.624Z,14.40
2019-03-21T13:03:34.849Z,14.30
2019-03-21T13:06:06.245Z,14.40
2019-03-21T13:08:37.540Z,14.30
2019-03-21T13:11:08.847Z,14.40
2019-03-21T13:16:36.334Z,14.70
2019-03-21T13:19:07.771Z,14.90
2019-03-21T13:21:38.745Z,15.10
2019-03-21T13:24:10.173Z,15.20
2019-03-21T13:26:41.376Z,15.30
2019-03-21T13:29:12.635Z,15.40
2019-03-21T13:31:44.146Z,15.50
2019-03-21T13:34:15.733Z,15.60
2019-03-21T13:36:47.047Z,15.80
2019-03-21T13:39:18.608Z,16.00
2019-03-21T13:41:49.937Z,16.20
2019-03-21T13:44:21.264Z,16.40
2019-03-21T13:46:52.435Z,16.70
2019-03-21T13:49:23.749Z,16.60
2019-03-21T13:51:55.021Z,15.90
2019-03-21T13:54:26.418Z,15.90
2019-03-21T13:56:57.521Z,16.10
2019-03-21T13:59:28.926Z,16.10
2019-03-21T14:02:00.129Z,16.00
2019-03-21T14:04:31.374Z,15.90
2019-03-21T14:07:02.611Z,16.00
2019-03-21T14:09:35.040Z,15.80
2019-03-21T14:12:06.208Z,15.90
2019-03-21T14:14:37.503Z,15.60
2019-03-21T14:17:08.803Z,16.00
2019-03-21T14:19:40.328Z,16.20
2019-03-21T14:22:11.679Z,16.30
2019-03-21T14:24:43.026Z,16.10
2019-03-21T14:27:14.206Z,16.20
2019-03-21T14:29:45.570Z,16.10
2019-03-21T14:32:16.886Z,16.20
2019-03-21T14:34:48.113Z,16.10
2019-03-21T14:37:19.488Z,16.40
2019-03-21T14:39:50.769Z,16.60
2019-03-21T14:42:21.994Z,16.70
2019-03-21T14:44:55.211Z,16.60
2019-03-21T14:47:35.777Z,16.60
2019-03-21T14:49:59.970Z,16.60
2019-03-21T14:52:32.160Z,16.50
2019-03-21T14:55:03.391Z,16.60
2019-03-21T14:57:34.963Z,16.60
2019-03-21T15:00:07.538Z,16.60
2019-03-21T15:02:38.841Z,16.50
2019-03-21T15:05:10.128Z,16.50
2019-03-21T15:07:41.426Z,16.50
2019-03-21T15:10:12.663Z,16.30
2019-03-21T15:12:43.883Z,16.30
2019-03-21T15:15:15.185Z,16.10
2019-03-21T15:17:47.210Z,16.10
2019-03-21T15:20:18.587Z,16.20
2019-03-21T15:22:49.865Z,15.90
2019-03-21T15:25:21.905Z,15.90
2019-03-21T15:27:53.325Z,16.00
2019-03-21T15:30:24.613Z,15.90
2019-03-21T15:32:55.786Z,15.80
2019-03-21T15:35:28.223Z,15.90
2019-03-21T15:38:00.456Z,15.90
2019-03-21T15:40:32.146Z,15.60
2019-03-21T15:43:03.478Z,15.70
2019-03-21T15:45:34.963Z,15.70
2019-03-21T15:48:06.329Z,15.30
2019-03-21T15:50:38.503Z,15.10
2019-03-21T15:53:09.865Z,14.90
2019-03-21T15:55:41.277Z,14.90
2019-03-21T15:58:12.436Z,14.90
2019-03-21T16:00:44.563Z,15.00
2019-03-21T16:03:15.848Z,14.80
2019-03-21T16:05:47.362Z,14.80
2019-03-21T16:08:21.392Z,14.70
2019-03-21T16:10:53.559Z,14.60
2019-03-21T16:13:24.930Z,14.60
2019-03-21T16:15:56.263Z,14.30
2019-03-21T16:18:28.423Z,14.30
2019-03-21T16:20:59.969Z,14.30
2019-03-21T16:23:31.144Z,14.30
2019-03-21T16:26:02.462Z,14.10
2019-03-21T16:28:33.609Z,14.10
2019-03-21T16:31:04.821Z,14.20
2019-03-21T16:33:36.101Z,14.00
2019-03-21T16:36:07.447Z,14.00
2019-03-21T16:38:40.014Z,14.00
2019-03-21T16:41:11.372Z,13.90
2019-03-21T16:43:44.918Z,13.80
2019-03-21T16:46:16.193Z,13.70
2019-03-21T16:48:47.464Z,13.70
2019-03-21T16:51:18.710Z,13.60
2019-03-21T16:53:57.251Z,13.50
2019-03-21T16:56:28.548Z,13.30
2019-03-21T16:59:00.750Z,13.30
2019-03-21T17:01:32.086Z,13.30
2019-03-21T17:04:03.563Z,13.30
2019-03-21T17:06:36.309Z,13.20
2019-03-21T17:09:09.566Z,13.20
2019-03-21T17:11:40.970Z,13.10
2019-03-21T17:14:12.339Z,12.80
2019-03-21T17:16:44.573Z,12.80
2019-03-21T17:19:16.140Z,12.80
2019-03-21T17:21:47.480Z,12.80
2019-03-21T17:24:28.799Z,12.80
2019-03-21T17:26:52.011Z,12.80
2019-03-21T17:29:23.291Z,12.60
2019-03-21T17:31:54.793Z,12.70
2019-03-21T17:34:25.970Z,12.60
2019-03-21T17:36:57.250Z,12.50
2019-03-21T17:39:28.574Z,12.50
2019-03-21T17:41:59.861Z,12.40
2019-03-21T17:44:31.106Z,12.40
2019-03-21T17:47:02.247Z,12.40
2019-03-21T17:49:33.335Z,12.20
2019-03-21T17:52:04.536Z,12.00
2019-03-21T17:54:41.511Z,12.00
2019-03-21T17:57:08.769Z,11.90
2019-03-21T17:59:40.068Z,11.90
2019-03-21T18:02:11.357Z,12.00
2019-03-21T18:04:42.567Z,12.00
2019-03-21T18:07:13.652Z,12.00
2019-03-21T18:09:44.930Z,11.90
2019-03-21T18:12:16.236Z,11.90
2019-03-21T18:14:47.453Z,11.90
2019-03-21T18:17:18.862Z,11.70
2019-03-21T18:19:50.238Z,11.60
2019-03-21T18:22:21.542Z,11.40
2019-03-21T18:24:54.008Z,11.40
2019-03-21T18:27:25.662Z,11.30
2019-03-21T18:29:57.752Z,11.30
2019-03-21T18:32:29.173Z,11.20
2019-03-21T18:35:00.681Z,11.30
2019-03-21T18:37:32.843Z,11.40
2019-03-21T18:40:04.211Z,11.40
2019-03-21T18:42:35.587Z,11.40
2019-03-21T18:45:07.014Z,11.50
2019-03-21T18:47:38.487Z,11.40
2019-03-21T18:50:09.563Z,11.50
2019-03-21T18:52:40.893Z,11.40
2019-03-21T18:55:12.523Z,11.40
2019-03-21T18:57:43.912Z,11.40
2019-03-21T19:00:15.478Z,11.40
2019-03-21T19:02:46.881Z,11.40
2019-03-21T19:05:18.165Z,11.30
2019-03-21T19:07:49.497Z,11.30
2019-03-21T19:10:20.857Z,11.30
2019-03-21T19:12:52.360Z,11.40
2019-03-21T19:15:23.578Z,11.30
2019-03-21T19:17:55.225Z,11.30
2019-03-21T19:20:28.102Z,11.40
2019-03-21T19:22:59.294Z,11.30
2019-03-21T19:25:30.528Z,11.30
2019-03-21T19:28:01.773Z,11.40
2019-03-21T19:30:33.034Z,11.30
2019-03-21T19:33:04.341Z,11.40
2019-03-21T19:35:35.588Z,11.40
2019-03-21T19:38:06.939Z,11.50
2019-03-21T19:40:38.301Z,11.50
2019-03-21T19:43:09.797Z,11.50
2019-03-21T19:45:42.582Z,11.50
2019-03-21T19:48:13.826Z,11.50
2019-03-21T19:50:45.215Z,11.50
2019-03-21T19:53:18.444Z,11.50
2019-03-21T19:55:49.928Z,11.50
2019-03-21T19:58:21.201Z,11.50
2019-03-21T20:00:52.694Z,11.40
2019-03-21T20:03:23.917Z,11.50
2019-03-21T20:06:00.198Z,11.50
2019-03-21T20:08:28.017Z,11.40
2019-03-21T20:11:01.700Z,11.30
2019-03-21T20:13:34.210Z,11.30
2019-03-21T20:16:05.522Z,11.30
2019-03-21T20:18:36.824Z,11.30
2019-03-21T20:21:08.702Z,11.20
2019-03-21T20:23:40.005Z,11.30
2019-03-21T20:26:11.592Z,11.30
2019-03-21T20:28:42.692Z,11.30
2019-03-21T20:31:14.023Z,11.20
2019-03-21T20:33:45.389Z,11.20
2019-03-21T20:36:16.652Z,11.20
2019-03-21T20:38:48.016Z,11.20
2019-03-21T20:41:19.164Z,11.20
2019-03-21T20:43:50.461Z,11.10
2019-03-21T20:46:23.089Z,11.10
2019-03-21T20:48:52.019Z,11.10
2019-03-21T20:51:23.461Z,11.10
2019-03-21T20:53:54.855Z,11.00
2019-03-21T20:56:26.229Z,11.10
2019-03-21T20:58:57.567Z,11.00
2019-03-21T21:01:29.948Z,11.10
2019-03-21T21:04:01.259Z,11.00
2019-03-21T21:06:35.177Z,11.00
2019-03-21T21:09:08.325Z,11.00
2019-03-21T21:11:40.070Z,11.00
2019-03-21T21:14:11.432Z,11.00
2019-03-21T21:16:42.744Z,11.00
2019-03-21T21:19:13.930Z,11.00
2019-03-21T21:21:46.242Z,11.00
2019-03-21T21:24:17.356Z,11.00
2019-03-21T21:26:48.854Z,11.00
2019-03-21T21:29:20.240Z,11.00
2019-03-21T21:31:51.649Z,11.00
2019-03-21T21:34:23.047Z,11.00
2019-03-21T21:36:54.229Z,10.90
2019-03-21T21:39:25.667Z,10.90
2019-03-21T21:41:57.985Z,10.90
2019-03-21T21:44:30.277Z,10.90
2019-03-21T21:47:01.676Z,10.90
2019-03-21T21:49:33.017Z,10.90
2019-03-21T21:52:04.403Z,10.90
2019-03-21T21:54:35.763Z,10.90
2019-03-21T21:57:07.277Z,10.90
2019-03-21T21:59:38.661Z,10.90
2019-03-21T22:02:10.072Z,10.90
2019-03-21T22:04:41.361Z,11.00
2019-03-21T22:07:12.668Z,10.90
2019-03-21T22:09:43.968Z,10.90
2019-03-21T22:12:15.273Z,10.80
2019-03-21T22:14:47.158Z,10.80
2019-03-21T22:17:18.473Z,10.70
2019-03-21T22:19:49.904Z,10.70
2019-03-21T22:22:21.201Z,10.70
2019-03-21T22:24:53.282Z,10.70
2019-03-21T22:27:24.613Z,10.70
2019-03-21T22:29:55.782Z,10.70
2019-03-21T22:32:27.174Z,10.60
2019-03-21T22:34:58.481Z,10.60
2019-03-21T22:37:30.915Z,10.60
2019-03-21T22:40:02.194Z,10.50
2019-03-21T22:42:33.580Z,10.50
2019-03-21T22:45:05.168Z,10.50
2019-03-21T22:47:36.378Z,10.50
2019-03-21T22:50:10.200Z,10.50
2019-03-21T22:52:42.343Z,10.50
2019-03-21T22:55:14.466Z,10.50
2019-03-21T22:57:45.770Z,10.50
2019-03-21T23:00:18.003Z,10.50
2019-03-21T23:02:50.862Z,10.50
2019-03-21T23:05:22.299Z,10.50
2019-03-21T23:07:53.515Z,10.50
2019-03-21T23:10:24.728Z,10.50
2019-03-21T23:12:56.056Z,10.50
2019-03-21T23:15:27.356Z,10.50
2019-03-21T23:17:58.610Z,10.50
2019-03-21T23:20:29.903Z,10.50
2019-03-21T23:23:01.099Z,10.50
2019-03-21T23:25:32.492Z,10.50
2019-03-21T23:28:03.813Z,10.40
2019-03-21T23:30:37.004Z,10.40
2019-03-21T23:33:09.239Z,10.50
2019-03-21T23:35:40.439Z,10.50
2019-03-21T23:38:11.812Z,10.40
2019-03-21T23:40:43.346Z,10.40
2019-03-21T23:43:14.717Z,10.40
2019-03-21T23:45:45.968Z,10.40
2019-03-21T23:48:17.885Z,10.50
2019-03-21T23:50:49.365Z,10.40
2019-03-21T23:53:22.576Z,10.40
2019-03-21T23:55:53.801Z,10.40
2019-03-21T23:58:25.115Z,10.40
